Forest Lakes, Arizona
Current Conditions -  °F | °C
As of 5:55 AM on Friday 24 Oct 2014 (Local Time) from KSOW Reporting Station
Clear Clear  
Wind Chill: 39°   Ceiling: Unl
Heat Index: 43°   Visibility: 10mi
Dew Point: 32°   Wind: 7mph
Humidity: 66%   Direction: 150°SSE
Pressure: 30.36"   Gusts: NA
Location:  34.43°N, 110.6°W
Report Text: KSOW 241255Z AUTO 15006KT 10SM CLR 06/00 A3036 RMK AO2
Loading
Personal Weather Stations






























Interactive Weather Map
Tropical Storm Tracking
New forecast layout! Learn more

10-Day Weather Forecast

Advertisements
Track Severe Weather on mobile